createdAt,value
2019-05-18T00:00:20.237Z,19.37
2019-05-18T00:02:48.027Z,19.35
2019-05-18T00:05:15.904Z,19.35
2019-05-18T00:07:43.840Z,19.34
2019-05-18T00:10:11.478Z,19.33
2019-05-18T00:12:39.055Z,19.33
2019-05-18T00:15:06.847Z,19.32
2019-05-18T00:17:34.751Z,19.31
2019-05-18T00:20:02.412Z,19.31
2019-05-18T00:22:29.915Z,19.29
2019-05-18T00:24:57.749Z,19.29
2019-05-18T00:27:25.492Z,19.27
2019-05-18T00:29:53.370Z,19.27
2019-05-18T00:32:21.265Z,19.27
2019-05-18T00:34:48.931Z,19.27
2019-05-18T00:37:16.702Z,19.26
2019-05-18T00:39:44.433Z,19.24
2019-05-18T00:42:12.175Z,19.23
2019-05-18T00:44:40.008Z,19.23
2019-05-18T00:47:07.780Z,19.22
2019-05-18T00:49:35.546Z,19.21
2019-05-18T00:52:03.115Z,19.20
2019-05-18T00:54:30.985Z,19.19
2019-05-18T00:56:58.806Z,19.18
2019-05-18T00:59:26.498Z,19.18
2019-05-18T01:01:54.298Z,19.17
2019-05-18T01:04:22.066Z,19.16
2019-05-18T01:06:49.936Z,19.16
2019-05-18T01:09:17.498Z,19.14
2019-05-18T01:11:45.249Z,19.13
2019-05-18T01:14:12.997Z,19.14
2019-05-18T01:16:40.708Z,19.12
2019-05-18T01:19:08.385Z,19.11
2019-05-18T01:21:36.142Z,19.11
2019-05-18T01:24:04.017Z,19.10
2019-05-18T01:26:31.787Z,19.10
2019-05-18T01:29:01.705Z,19.11
2019-05-18T01:31:29.343Z,19.07
2019-05-18T01:33:56.973Z,19.05
2019-05-18T01:36:24.811Z,19.05
2019-05-18T01:38:52.282Z,19.04
2019-05-18T01:41:19.716Z,19.04
2019-05-18T01:43:47.173Z,19.03
2019-05-18T01:46:14.968Z,19.02
2019-05-18T01:48:42.448Z,19.03
2019-05-18T01:51:10.181Z,19.03
2019-05-18T01:53:37.970Z,19.01
2019-05-18T01:56:05.414Z,19.00
2019-05-18T01:58:32.880Z,18.98
2019-05-18T02:01:00.323Z,18.99
2019-05-18T02:03:28.098Z,18.99
2019-05-18T02:05:55.900Z,18.99
2019-05-18T02:08:23.408Z,18.99
2019-05-18T02:10:50.861Z,18.98
2019-05-18T02:13:18.336Z,18.96
2019-05-18T02:15:45.812Z,18.96
2019-05-18T02:18:28.007Z,18.95
2019-05-18T02:20:42.665Z,18.95
2019-05-18T02:23:10.490Z,18.94
2019-05-18T02:25:38.126Z,18.93
2019-05-18T02:28:06.284Z,18.93
2019-05-18T02:30:33.771Z,18.92
2019-05-18T02:33:01.671Z,18.91
2019-05-18T02:35:29.163Z,18.90
2019-05-18T02:38:13.525Z,18.89
2019-05-18T02:40:41.192Z,18.89
2019-05-18T02:43:08.918Z,18.90
2019-05-18T02:45:36.585Z,18.89
2019-05-18T02:48:04.354Z,18.88
2019-05-18T02:50:31.772Z,18.88
2019-05-18T02:52:59.256Z,18.86
2019-05-18T02:55:26.721Z,18.84
2019-05-18T02:57:54.263Z,18.84
2019-05-18T03:00:21.720Z,18.85
2019-05-18T03:02:49.163Z,18.84
2019-05-18T03:05:17.008Z,18.81
2019-05-18T03:07:44.771Z,18.71
2019-05-18T03:10:12.558Z,18.79
2019-05-18T03:12:40.106Z,18.79
2019-05-18T03:15:08.097Z,18.78
2019-05-18T03:17:36.025Z,18.75
2019-05-18T03:20:03.930Z,18.75
2019-05-18T03:22:31.700Z,18.75
2019-05-18T03:24:59.362Z,18.74
2019-05-18T03:27:27.134Z,18.73
2019-05-18T03:29:54.806Z,18.72
2019-05-18T03:32:22.275Z,18.73
2019-05-18T03:34:49.720Z,18.72
2019-05-18T03:37:17.203Z,18.72
2019-05-18T03:39:44.676Z,18.70
2019-05-18T03:42:12.120Z,18.70
2019-05-18T03:44:39.591Z,18.72
2019-05-18T03:47:07.075Z,18.70
2019-05-18T03:49:34.493Z,18.69
2019-05-18T03:52:01.972Z,18.67
2019-05-18T03:54:29.387Z,18.67
2019-05-18T03:56:56.906Z,18.68
2019-05-18T03:59:24.337Z,18.68
2019-05-18T04:01:51.770Z,18.67
2019-05-18T04:04:19.244Z,18.66
2019-05-18T04:06:46.697Z,18.68
2019-05-18T04:09:14.160Z,18.66
2019-05-18T04:11:41.607Z,18.66
2019-05-18T04:14:09.129Z,18.65
2019-05-18T04:16:36.909Z,18.65
2019-05-18T04:19:04.506Z,18.65
2019-05-18T04:21:31.964Z,18.66
2019-05-18T04:23:59.392Z,18.65
2019-05-18T04:26:26.861Z,18.65
2019-05-18T04:28:54.339Z,18.65
2019-05-18T04:31:21.818Z,18.65
2019-05-18T04:33:49.273Z,18.65
2019-05-18T04:36:16.760Z,18.64
2019-05-18T04:38:44.258Z,18.65
2019-05-18T04:41:11.769Z,18.65
2019-05-18T04:43:39.235Z,18.66
2019-05-18T04:46:06.685Z,18.66
2019-05-18T04:48:34.206Z,18.67
2019-05-18T04:51:01.651Z,18.67
2019-05-18T04:53:29.087Z,18.67
2019-05-18T04:55:59.537Z,18.66
2019-05-18T04:58:27.252Z,18.66
2019-05-18T05:00:54.727Z,18.67
2019-05-18T05:03:22.199Z,18.66
2019-05-18T05:05:49.680Z,18.67
2019-05-18T05:08:17.124Z,18.68
2019-05-18T05:10:44.597Z,18.69
2019-05-18T05:13:12.049Z,18.69
2019-05-18T05:15:39.506Z,18.71
2019-05-18T05:18:06.974Z,18.73
2019-05-18T05:20:34.452Z,18.74
2019-05-18T05:23:01.926Z,18.74
2019-05-18T05:25:29.373Z,18.75
2019-05-18T05:27:56.858Z,18.75
2019-05-18T05:30:24.328Z,18.77
2019-05-18T05:32:51.799Z,18.77
2019-05-18T05:35:19.252Z,18.79
2019-05-18T05:37:46.690Z,18.81
2019-05-18T05:40:14.174Z,18.81
2019-05-18T05:42:41.628Z,18.82
2019-05-18T05:45:09.210Z,18.83
2019-05-18T05:47:36.918Z,18.84
2019-05-18T05:50:05.288Z,18.84
2019-05-18T05:52:32.758Z,18.86
2019-05-18T05:55:00.520Z,18.86
2019-05-18T05:57:28.336Z,18.87
2019-05-18T05:59:56.187Z,18.89
2019-05-18T06:02:23.703Z,18.91
2019-05-18T06:04:51.149Z,18.95
2019-05-18T06:07:18.631Z,19.00
2019-05-18T06:09:46.099Z,19.01
2019-05-18T06:12:13.577Z,19.01
2019-05-18T06:14:41.045Z,19.02
2019-05-18T06:17:08.654Z,19.03
2019-05-18T06:19:36.175Z,19.06
2019-05-18T06:22:03.663Z,19.08
2019-05-18T06:24:31.097Z,19.08
2019-05-18T06:26:58.548Z,19.09
2019-05-18T06:29:26.038Z,19.10
2019-05-18T06:31:53.489Z,19.13
2019-05-18T06:34:20.958Z,19.11
2019-05-18T06:36:48.475Z,19.14
2019-05-18T06:39:16.019Z,19.16
2019-05-18T06:41:43.642Z,19.18
2019-05-18T06:44:11.415Z,19.20
2019-05-18T06:46:39.150Z,19.22
2019-05-18T06:49:06.596Z,19.25
2019-05-18T06:51:34.175Z,19.28
2019-05-18T06:54:01.624Z,19.30
2019-05-18T06:56:29.074Z,19.33
2019-05-18T06:58:56.553Z,19.34
2019-05-18T07:01:24.369Z,19.36
2019-05-18T07:03:51.837Z,19.38
2019-05-18T07:06:19.701Z,19.39
2019-05-18T07:08:47.474Z,19.43
2019-05-18T07:11:15.141Z,19.44
2019-05-18T07:13:43.011Z,19.45
2019-05-18T07:16:10.721Z,19.46
2019-05-18T07:18:38.557Z,19.45
2019-05-18T07:21:21.091Z,19.48
2019-05-18T07:23:35.970Z,19.48
2019-05-18T07:26:03.806Z,19.50
2019-05-18T07:28:31.576Z,19.51
2019-05-18T07:30:59.241Z,19.52
2019-05-18T07:33:26.697Z,19.53
2019-05-18T07:35:54.575Z,19.54
2019-05-18T07:38:22.020Z,19.55
2019-05-18T07:40:49.459Z,19.57
2019-05-18T07:43:16.946Z,19.60
2019-05-18T07:45:44.401Z,19.62
2019-05-18T07:48:11.916Z,19.64
2019-05-18T07:50:39.379Z,19.65
2019-05-18T07:53:06.814Z,19.67
2019-05-18T07:55:34.289Z,19.70
2019-05-18T07:58:01.810Z,19.71
2019-05-18T08:00:29.330Z,19.75
2019-05-18T08:02:56.778Z,19.76
2019-05-18T08:05:24.284Z,19.77
2019-05-18T08:07:51.738Z,19.80
2019-05-18T08:10:32.997Z,19.81
2019-05-18T08:13:00.463Z,19.83
2019-05-18T08:15:28.202Z,19.85
2019-05-18T08:17:55.976Z,19.86
2019-05-18T08:20:23.421Z,19.88
2019-05-18T08:22:51.019Z,19.91
2019-05-18T08:25:18.608Z,19.92
2019-05-18T08:27:46.056Z,19.96
2019-05-18T08:30:13.535Z,19.97
2019-05-18T08:32:41.160Z,19.99
2019-05-18T08:35:08.835Z,20.02
2019-05-18T08:37:36.985Z,20.03
2019-05-18T08:40:04.883Z,20.06
2019-05-18T08:42:32.858Z,20.08
2019-05-18T08:45:00.623Z,20.11
2019-05-18T08:47:28.073Z,20.12
2019-05-18T08:49:55.854Z,20.14
2019-05-18T08:52:23.328Z,20.16
2019-05-18T08:54:50.776Z,20.18
2019-05-18T08:57:18.548Z,20.19
2019-05-18T08:59:46.329Z,20.21
2019-05-18T09:02:13.986Z,20.23
2019-05-18T09:04:41.732Z,20.25
2019-05-18T09:07:09.383Z,20.26
2019-05-18T09:09:37.146Z,20.28
2019-05-18T09:12:04.862Z,20.30
2019-05-18T09:14:32.594Z,20.31
2019-05-18T09:17:00.047Z,20.33
2019-05-18T09:19:27.557Z,20.35
2019-05-18T09:21:55.015Z,20.37
2019-05-18T09:24:22.789Z,20.38
2019-05-18T09:26:50.235Z,20.41
2019-05-18T09:29:18.149Z,20.43
2019-05-18T09:31:46.061Z,20.45
2019-05-18T09:34:13.701Z,20.47
2019-05-18T09:36:41.536Z,20.49
2019-05-18T09:39:09.099Z,20.52
2019-05-18T09:41:36.557Z,20.54
2019-05-18T09:44:04.067Z,20.57
2019-05-18T09:46:31.537Z,20.58
2019-05-18T09:48:59.360Z,20.60
2019-05-18T09:51:26.966Z,20.62
2019-05-18T09:53:54.760Z,20.64
2019-05-18T09:56:22.185Z,20.67
2019-05-18T09:58:49.933Z,20.71
2019-05-18T10:01:17.509Z,20.74
2019-05-18T10:03:45.046Z,20.77
2019-05-18T10:06:12.926Z,20.80
2019-05-18T10:08:40.732Z,20.82
2019-05-18T10:11:08.237Z,20.84
2019-05-18T10:13:35.687Z,20.87
2019-05-18T10:16:03.155Z,20.89
2019-05-18T10:18:30.608Z,20.92
2019-05-18T10:20:58.523Z,20.94
2019-05-18T10:23:25.948Z,20.94
2019-05-18T10:25:53.393Z,20.97
2019-05-18T10:28:21.317Z,21.00
2019-05-18T10:30:48.789Z,21.04
2019-05-18T10:33:16.654Z,21.03
2019-05-18T10:35:44.457Z,21.05
2019-05-18T10:38:11.913Z,21.11
2019-05-18T10:40:39.658Z,21.12
2019-05-18T10:43:07.424Z,21.11
2019-05-18T10:45:34.840Z,21.14
2019-05-18T10:48:02.377Z,21.21
2019-05-18T10:50:29.971Z,21.27
2019-05-18T10:52:57.421Z,21.31
2019-05-18T10:55:24.943Z,21.34
2019-05-18T10:57:52.710Z,21.37
2019-05-18T11:00:20.264Z,21.39
2019-05-18T11:02:48.051Z,21.43
2019-05-18T11:05:15.684Z,21.45
2019-05-18T11:07:43.382Z,21.46
2019-05-18T11:10:11.102Z,21.50
2019-05-18T11:12:38.904Z,21.53
2019-05-18T11:15:08.377Z,21.54
2019-05-18T11:17:36.198Z,21.54
2019-05-18T11:20:04.090Z,21.57
2019-05-18T11:22:31.947Z,21.62
2019-05-18T11:24:59.737Z,21.68
2019-05-18T11:27:27.520Z,21.72
2019-05-18T11:29:55.343Z,21.76
2019-05-18T11:32:23.168Z,21.79
2019-05-18T11:34:50.902Z,21.83
2019-05-18T11:37:18.513Z,21.86
2019-05-18T11:39:46.367Z,21.89
2019-05-18T11:42:14.304Z,21.91
2019-05-18T11:44:42.311Z,21.92
2019-05-18T11:47:10.156Z,21.95
2019-05-18T11:49:37.939Z,21.98
2019-05-18T11:52:05.572Z,21.98
2019-05-18T11:54:33.236Z,22.01
2019-05-18T11:57:01.083Z,22.06
2019-05-18T11:59:29.082Z,22.09
2019-05-18T12:01:56.670Z,22.11
2019-05-18T12:04:24.440Z,22.08
2019-05-18T12:06:52.321Z,22.13
2019-05-18T12:09:20.241Z,22.18
2019-05-18T12:11:48.221Z,22.21
2019-05-18T12:14:16.028Z,22.25
2019-05-18T12:16:43.697Z,22.28
2019-05-18T12:19:11.571Z,22.32
2019-05-18T12:21:39.379Z,22.34
2019-05-18T12:24:15.424Z,22.38
2019-05-18T12:26:36.922Z,22.40
2019-05-18T12:29:04.690Z,22.42
2019-05-18T12:31:32.474Z,22.45
2019-05-18T12:34:00.174Z,22.44
2019-05-18T12:36:27.897Z,22.44
2019-05-18T12:38:55.566Z,22.44
2019-05-18T12:41:29.380Z,22.46
2019-05-18T12:43:57.141Z,22.49
2019-05-18T12:46:24.989Z,22.48
2019-05-18T12:48:52.717Z,22.55
2019-05-18T12:51:20.283Z,22.58
2019-05-18T12:53:47.988Z,22.63
2019-05-18T12:56:15.668Z,22.67
2019-05-18T12:58:43.557Z,22.70
2019-05-18T13:01:11.432Z,22.69
2019-05-18T13:03:39.193Z,22.68
2019-05-18T13:06:06.975Z,22.72
2019-05-18T13:08:34.635Z,22.76
2019-05-18T13:11:02.202Z,22.81
2019-05-18T13:13:29.911Z,22.81
2019-05-18T13:15:57.512Z,22.84
2019-05-18T13:18:25.260Z,22.87
2019-05-18T13:20:52.975Z,22.90
2019-05-18T13:23:20.740Z,22.94
2019-05-18T13:25:48.511Z,22.96
2019-05-18T13:28:16.286Z,22.99
2019-05-18T13:30:44.139Z,23.01
2019-05-18T13:33:11.864Z,23.04
2019-05-18T13:35:39.797Z,23.06
2019-05-18T13:38:07.566Z,23.10
2019-05-18T13:40:35.169Z,23.13
2019-05-18T13:43:03.089Z,23.16
2019-05-18T13:45:30.983Z,23.18
2019-05-18T13:47:58.850Z,23.22
2019-05-18T13:50:26.622Z,23.25
2019-05-18T13:52:54.579Z,23.28
2019-05-18T13:55:22.362Z,23.31
2019-05-18T13:57:50.242Z,23.33
2019-05-18T14:00:18.111Z,23.37
2019-05-18T14:02:45.837Z,23.39
2019-05-18T14:05:13.518Z,23.44
2019-05-18T14:07:41.110Z,23.48
2019-05-18T14:10:11.824Z,23.49
2019-05-18T14:12:39.517Z,23.51
2019-05-18T14:15:07.284Z,23.51
2019-05-18T14:17:35.165Z,23.60
2019-05-18T14:20:02.966Z,24.01
2019-05-18T14:22:30.635Z,24.60
2019-05-18T14:24:58.416Z,25.00
2019-05-18T14:27:26.029Z,25.28
2019-05-18T14:29:53.800Z,25.47
2019-05-18T14:32:21.640Z,25.49
2019-05-18T14:34:49.365Z,25.69
2019-05-18T14:37:17.071Z,25.71
2019-05-18T14:39:44.813Z,25.57
2019-05-18T14:42:12.651Z,25.06
2019-05-18T14:44:40.315Z,24.82
2019-05-18T14:47:08.081Z,24.98
2019-05-18T14:49:35.789Z,25.28
2019-05-18T14:52:03.482Z,25.54
2019-05-18T14:54:31.123Z,25.71
2019-05-18T14:56:58.857Z,25.78
2019-05-18T14:59:26.629Z,25.67
2019-05-18T15:01:54.395Z,25.44
2019-05-18T15:04:22.165Z,25.21
2019-05-18T15:06:49.832Z,25.08
2019-05-18T15:09:17.874Z,24.99
2019-05-18T15:11:45.677Z,24.95
2019-05-18T15:14:13.351Z,24.92
2019-05-18T15:16:41.012Z,24.94
2019-05-18T15:19:08.849Z,24.98
2019-05-18T15:21:36.553Z,25.01
2019-05-18T15:24:04.217Z,25.04
2019-05-18T15:26:32.089Z,25.07
2019-05-18T15:28:59.901Z,25.11
2019-05-18T15:31:27.731Z,25.17
2019-05-18T15:33:55.607Z,25.19
2019-05-18T15:36:23.377Z,25.20
2019-05-18T15:38:51.043Z,25.20
2019-05-18T15:41:18.611Z,25.16
2019-05-18T15:43:46.360Z,25.07
2019-05-18T15:46:13.973Z,25.03
2019-05-18T15:48:41.828Z,24.98
2019-05-18T15:51:09.584Z,24.99
2019-05-18T15:53:37.255Z,24.98
2019-05-18T15:56:06.403Z,24.97
2019-05-18T15:58:34.314Z,24.98
2019-05-18T16:01:02.017Z,24.99
2019-05-18T16:03:29.600Z,25.01
2019-05-18T16:05:57.422Z,25.05
2019-05-18T16:08:25.297Z,25.10
2019-05-18T16:10:53.075Z,25.12
2019-05-18T16:13:20.842Z,25.10
2019-05-18T16:15:48.594Z,25.04
2019-05-18T16:18:16.338Z,25.01
2019-05-18T16:20:44.366Z,25.00
2019-05-18T16:23:11.919Z,24.98
2019-05-18T16:25:39.485Z,24.95
2019-05-18T16:28:07.268Z,24.93
2019-05-18T16:30:34.934Z,24.91
2019-05-18T16:33:02.593Z,24.91
2019-05-18T16:35:30.156Z,24.92
2019-05-18T16:37:58.014Z,24.89
2019-05-18T16:40:25.520Z,24.88
2019-05-18T16:42:52.974Z,24.90
2019-05-18T16:45:20.544Z,24.89
2019-05-18T16:47:47.985Z,24.90
2019-05-18T16:50:15.411Z,24.92
2019-05-18T16:52:42.892Z,24.92
2019-05-18T16:55:10.374Z,24.93
2019-05-18T16:57:37.795Z,24.95
2019-05-18T17:00:05.370Z,24.97
2019-05-18T17:02:33.987Z,24.98
2019-05-18T17:05:01.854Z,24.98
2019-05-18T17:07:29.630Z,24.97
2019-05-18T17:09:57.500Z,25.00
2019-05-18T17:12:25.310Z,25.00
2019-05-18T17:14:53.243Z,25.01
2019-05-18T17:17:21.113Z,25.04
2019-05-18T17:19:48.778Z,25.10
2019-05-18T17:22:16.590Z,25.16
2019-05-18T17:24:44.182Z,25.23
2019-05-18T17:27:11.893Z,25.31
2019-05-18T17:29:39.557Z,25.39
2019-05-18T17:32:07.225Z,25.45
2019-05-18T17:34:34.767Z,25.51
2019-05-18T17:37:02.210Z,25.54
2019-05-18T17:39:29.753Z,25.55
2019-05-18T17:41:57.344Z,25.58
2019-05-18T17:44:24.801Z,25.61
2019-05-18T17:46:52.243Z,25.62
2019-05-18T17:49:26.965Z,25.63
2019-05-18T17:51:49.280Z,25.63
2019-05-18T17:54:16.992Z,25.63
2019-05-18T17:56:44.917Z,25.63
2019-05-18T17:59:12.687Z,25.62
2019-05-18T18:01:40.357Z,25.63
2019-05-18T18:04:08.128Z,25.64
2019-05-18T18:06:35.717Z,25.63
2019-05-18T18:09:04.581Z,25.64
2019-05-18T18:11:32.495Z,25.67
2019-05-18T18:14:00.332Z,25.64
2019-05-18T18:16:28.001Z,25.63
2019-05-18T18:18:55.766Z,25.61
2019-05-18T18:21:23.543Z,25.61
2019-05-18T18:23:54.634Z,25.61
2019-05-18T18:26:20.864Z,25.59
2019-05-18T18:28:48.621Z,25.54
2019-05-18T18:31:16.456Z,25.49
2019-05-18T18:33:44.024Z,25.47
2019-05-18T18:36:11.758Z,25.45
2019-05-18T18:38:39.819Z,25.42
2019-05-18T18:41:07.748Z,25.38
2019-05-18T18:43:35.510Z,25.34
2019-05-18T18:46:03.378Z,25.30
2019-05-18T18:48:31.207Z,25.24
2019-05-18T18:50:58.940Z,25.20
2019-05-18T18:53:26.486Z,25.13
2019-05-18T18:55:54.255Z,25.07
2019-05-18T18:58:22.124Z,25.01
2019-05-18T19:00:50.102Z,24.95
2019-05-18T19:03:17.871Z,24.90
2019-05-18T19:05:45.743Z,24.86
2019-05-18T19:08:13.412Z,24.83
2019-05-18T19:10:41.282Z,24.81
2019-05-18T19:13:09.055Z,24.75
2019-05-18T19:15:36.828Z,24.71
2019-05-18T19:18:04.594Z,24.68
2019-05-18T19:20:32.155Z,24.65
2019-05-18T19:23:00.134Z,24.62
2019-05-18T19:25:27.770Z,24.59
2019-05-18T19:27:55.613Z,24.55
2019-05-18T19:30:23.548Z,24.52
2019-05-18T19:32:51.314Z,24.49
2019-05-18T19:35:18.980Z,24.44
2019-05-18T19:37:46.724Z,24.40
2019-05-18T19:40:14.570Z,24.33
2019-05-18T19:42:42.500Z,24.25
2019-05-18T19:45:10.281Z,24.17
2019-05-18T19:47:38.143Z,24.12
2019-05-18T19:50:05.871Z,23.98
2019-05-18T19:52:33.665Z,23.85
2019-05-18T19:55:04.519Z,23.78
2019-05-18T19:57:32.121Z,23.74
2019-05-18T19:59:59.753Z,23.68
2019-05-18T20:02:27.364Z,23.62
2019-05-18T20:05:07.291Z,23.64
2019-05-18T20:07:24.493Z,23.66
2019-05-18T20:09:53.024Z,23.61
2019-05-18T20:12:20.958Z,23.59
2019-05-18T20:14:48.910Z,23.57
2019-05-18T20:17:17.205Z,23.54
2019-05-18T20:19:45.003Z,23.49
2019-05-18T20:22:12.840Z,23.43
2019-05-18T20:24:40.418Z,23.40
2019-05-18T20:27:08.184Z,23.36
2019-05-18T20:29:35.849Z,23.28
2019-05-18T20:32:03.824Z,23.21
2019-05-18T20:34:31.580Z,23.15
2019-05-18T20:36:59.408Z,23.11
2019-05-18T20:39:27.102Z,23.07
2019-05-18T20:41:54.908Z,22.97
2019-05-18T20:44:22.673Z,22.92
2019-05-18T20:46:50.381Z,22.86
2019-05-18T20:49:18.418Z,22.80
2019-05-18T20:51:45.982Z,22.74
2019-05-18T20:54:13.751Z,22.71
2019-05-18T20:56:41.386Z,22.69
2019-05-18T20:59:09.063Z,22.66
2019-05-18T21:01:36.858Z,22.64
2019-05-18T21:04:04.626Z,22.60
2019-05-18T21:06:32.498Z,22.58
2019-05-18T21:09:00.271Z,22.56
2019-05-18T21:11:27.943Z,22.54
2019-05-18T21:13:57.692Z,22.52
2019-05-18T21:16:25.213Z,22.49
2019-05-18T21:18:52.878Z,22.47
2019-05-18T21:21:25.127Z,22.44
2019-05-18T21:23:49.736Z,22.39
2019-05-18T21:26:17.449Z,22.37
2019-05-18T21:28:55.495Z,22.34
2019-05-18T21:31:14.593Z,22.30
2019-05-18T21:33:42.365Z,22.30
2019-05-18T21:36:10.442Z,22.28
2019-05-18T21:38:38.181Z,22.24
2019-05-18T21:41:05.918Z,22.23
2019-05-18T21:43:33.543Z,22.21
2019-05-18T21:46:01.210Z,22.18
2019-05-18T21:48:28.878Z,22.15
2019-05-18T21:50:56.609Z,22.14
2019-05-18T21:53:24.289Z,22.10
2019-05-18T21:55:52.069Z,22.07
2019-05-18T21:58:19.756Z,22.04
2019-05-18T22:00:47.831Z,22.03
2019-05-18T22:03:15.569Z,22.00
2019-05-18T22:05:43.313Z,21.97
2019-05-18T22:08:11.141Z,21.95
2019-05-18T22:10:38.909Z,21.93
2019-05-18T22:13:06.606Z,21.91
2019-05-18T22:15:34.344Z,21.90
2019-05-18T22:18:04.837Z,21.87
2019-05-18T22:20:33.695Z,21.85
2019-05-18T22:23:01.408Z,21.83
2019-05-18T22:25:28.840Z,21.79
2019-05-18T22:27:56.301Z,21.77
2019-05-18T22:30:23.727Z,21.75
2019-05-18T22:32:51.193Z,21.73
2019-05-18T22:35:18.628Z,21.71
2019-05-18T22:37:46.220Z,21.69
2019-05-18T22:40:13.722Z,21.67
2019-05-18T22:42:41.147Z,21.66
2019-05-18T22:45:08.585Z,21.64
2019-05-18T22:47:38.542Z,21.62
2019-05-18T22:50:06.120Z,21.60
2019-05-18T22:52:33.627Z,21.58
2019-05-18T22:55:01.084Z,21.55
2019-05-18T22:57:28.536Z,21.54
2019-05-18T22:59:55.999Z,21.53
2019-05-18T23:02:23.452Z,21.50
2019-05-18T23:04:50.935Z,21.48
2019-05-18T23:07:18.382Z,21.46
2019-05-18T23:09:45.887Z,21.45
2019-05-18T23:12:13.342Z,21.42
2019-05-18T23:14:40.838Z,21.42
2019-05-18T23:17:08.290Z,21.40
2019-05-18T23:19:35.750Z,21.37
2019-05-18T23:22:03.231Z,21.35
2019-05-18T23:24:30.669Z,21.32
2019-05-18T23:26:58.244Z,21.30
2019-05-18T23:29:25.668Z,21.29
2019-05-18T23:31:53.151Z,21.27
2019-05-18T23:34:20.623Z,21.27
2019-05-18T23:36:48.107Z,21.25
2019-05-18T23:39:15.552Z,21.24
2019-05-18T23:41:43.016Z,21.23
2019-05-18T23:44:10.467Z,21.20
2019-05-18T23:46:37.959Z,21.19
2019-05-18T23:49:10.916Z,21.18
2019-05-18T23:51:34.769Z,21.17
2019-05-18T23:54:02.327Z,21.16
2019-05-18T23:56:29.818Z,21.13
2019-05-18T23:58:57.262Z,21.12
